Time;durP1;ratioP1;P1;durP2;ratioP2;P2;SDS_P1;SDS_P2;PMS_P1;PMS_P2;Temp;Humidity;BMP_temperature;BMP_pressure;BME280_temperature;BME280_humidity;BME280_pressure;Samples;Min_cycle;Max_cycle;Signal;HPM_P1;HPM_P2
2024/03/11 00:00:17;;;;;;;37.88;35.78;;;;;;;;;;5111358;27;20042;-64
2024/03/11 00:02:46;;;;;;;38.67;36.60;;;;;;;;;;5115389;27;20039;-63
2024/03/11 00:05:12;;;;;;;40.15;38.03;;;;;;;;;;5113576;27;20110;-63
2024/03/11 00:07:40;;;;;;;39.28;37.17;;;;;;;;;;5115526;27;20035;-62
2024/03/11 00:10:13;;;;;;;41.80;39.65;;;;;;;;;;5093958;27;20051;-63
2024/03/11 00:12:44;;;;;;;42.55;40.22;;;;;;;;;;5113744;27;20031;-64
2024/03/11 00:15:12;;;;;;;40.88;38.78;;;;;;;;;;5113480;27;20049;-63
2024/03/11 00:17:37;;;;;;;38.25;36.25;;;;;;;;;;5113740;27;20040;-63
2024/03/11 00:20:04;;;;;;;40.97;38.80;;;;;;;;;;5112948;27;20043;-64
2024/03/11 00:22:30;;;;;;;40.25;38.15;;;;;;;;;;5112961;27;20040;-64
2024/03/11 00:24:55;;;;;;;47.40;44.95;;;;;;;;;;5094378;27;20036;-63
2024/03/11 00:27:21;;;;;;;40.53;38.42;;;;;;;;;;5110332;27;20130;-64
2024/03/11 00:29:48;;;;;;;43.15;40.90;;;;;;;;;;5118615;27;20042;-64
2024/03/11 00:32:14;;;;;;;43.85;41.55;;;;;;;;;;5111380;27;20080;-64
2024/03/11 00:34:41;;;;;;;46.03;43.65;;;;;;;;;;5116052;27;20035;-63
2024/03/11 00:37:07;;;;;;;48.25;45.75;;;;;;;;;;5094599;27;20487;-64
2024/03/11 00:39:34;;;;;;;46.67;44.22;;;;;;;;;;5113968;27;20035;-64
2024/03/11 00:41:59;;;;;;;43.40;41.10;;;;;;;;;;5113549;27;20089;-65
2024/03/11 00:44:26;;;;;;;43.58;41.35;;;;;;;;;;5111179;27;20463;-60
2024/03/11 00:46:51;;;;;;;44.22;41.97;;;;;;;;;;5113688;27;20118;-61
2024/03/11 00:49:19;;;;;;;46.70;44.30;;;;;;;;;;5112914;27;20117;-62
2024/03/11 00:51:45;;;;;;;45.22;42.25;;;;;;;;;;5112565;27;20122;-60
2024/03/11 00:54:11;;;;;;;45.22;42.92;;;;;;;;;;5109870;27;20201;-60
2024/03/11 00:56:37;;;;;;;45.63;43.30;;;;;;;;;;5113715;27;20031;-60
2024/03/11 00:59:04;;;;;;;53.60;50.90;;;;;;;;;;5113187;27;20041;-60
2024/03/11 01:01:30;;;;;;;52.25;49.55;;;;;;;;;;5112783;27;20041;-59
2024/03/11 01:03:55;;;;;;;50.67;48.08;;;;;;;;;;5112782;27;20043;-59
2024/03/11 01:06:21;;;;;;;50.67;48.10;;;;;;;;;;5113187;27;20043;-60
2024/03/11 01:08:46;;;;;;;52.83;50.13;;;;;;;;;;5093579;27;20095;-59
2024/03/11 01:11:12;;;;;;;49.60;47.10;;;;;;;;;;5108385;27;20112;-59
2024/03/11 01:13:37;;;;;;;49.92;46.97;;;;;;;;;;5104255;27;20031;-60
2024/03/11 01:16:03;;;;;;;46.15;43.80;;;;;;;;;;5113723;27;20047;-59
2024/03/11 01:18:28;;;;;;;45.05;42.75;;;;;;;;;;5112325;27;20031;-59
2024/03/11 01:20:54;;;;;;;45.83;43.50;;;;;;;;;;5112423;27;20132;-59
2024/03/11 01:23:20;;;;;;;46.65;44.25;;;;;;;;;;5109943;27;20103;-59
2024/03/11 01:25:46;;;;;;;47.20;44.67;;;;;;;;;;5113314;27;20047;-60
2024/03/11 01:28:11;;;;;;;51.30;48.70;;;;;;;;;;5110753;27;20103;-59
2024/03/11 01:30:37;;;;;;;53.47;50.58;;;;;;;;;;5111121;27;20035;-59
2024/03/11 01:33:04;;;;;;;55.40;52.58;;;;;;;;;;5110785;27;20526;-59
2024/03/11 01:35:30;;;;;;;52.33;49.63;;;;;;;;;;5110146;27;20047;-59
2024/03/11 01:37:56;;;;;;;51.47;48.83;;;;;;;;;;5089062;27;20036;-60
2024/03/11 01:40:22;;;;;;;54.25;51.47;;;;;;;;;;5110928;27;20027;-60
2024/03/11 01:42:50;;;;;;;50.30;47.70;;;;;;;;;;5092501;27;20522;-60
2024/03/11 01:45:16;;;;;;;53.67;50.95;;;;;;;;;;5113204;27;20108;-59
2024/03/11 01:47:42;;;;;;;50.65;48.05;;;;;;;;;;5109951;27;20028;-59
2024/03/11 01:50:08;;;;;;;57.72;54.80;;;;;;;;;;5108052;27;20093;-59
2024/03/11 01:52:37;;;;;;;54.10;51.28;;;;;;;;;;5107712;27;20027;-59
2024/03/11 01:55:04;;;;;;;61.00;57.88;;;;;;;;;;5109051;27;20479;-59
2024/03/11 01:57:33;;;;;;;62.85;59.63;;;;;;;;;;5106544;27;20126;-60
2024/03/11 01:59:58;;;;;;;62.05;58.92;;;;;;;;;;5109700;27;20027;-59
2024/03/11 02:02:24;;;;;;;65.82;62.45;;;;;;;;;;5109079;28;20027;-59
2024/03/11 02:04:50;;;;;;;65.18;61.85;;;;;;;;;;5115243;27;20085;-59
2024/03/11 02:07:16;;;;;;;62.28;58.90;;;;;;;;;;5109574;27;20110;-59
2024/03/11 02:09:42;;;;;;;61.58;58.47;;;;;;;;;;5109356;27;20118;-59
2024/03/11 02:12:09;;;;;;;65.97;62.65;;;;;;;;;;5111479;27;20031;-60
2024/03/11 02:14:35;;;;;;;66.53;63.10;;;;;;;;;;5107280;27;20122;-59
2024/03/11 02:17:02;;;;;;;76.45;72.63;;;;;;;;;;5111467;28;20023;-59
2024/03/11 02:19:27;;;;;;;75.88;72.07;;;;;;;;;;5108987;28;20449;-59
2024/03/11 02:21:53;;;;;;;73.32;69.65;;;;;;;;;;5110114;28;20054;-59
2024/03/11 02:24:18;;;;;;;89.78;85.25;;;;;;;;;;5108710;28;20027;-59
2024/03/11 02:26:45;;;;;;;87.63;83.15;;;;;;;;;;5110853;28;20496;-59
2024/03/11 02:29:12;;;;;;;80.20;75.95;;;;;;;;;;5110771;28;20057;-59
2024/03/11 02:31:37;;;;;;;89.00;84.40;;;;;;;;;;5104790;28;20115;-59
2024/03/11 02:34:03;;;;;;;85.40;81.10;;;;;;;;;;5093453;28;20535;-59
2024/03/11 02:36:28;;;;;;;82.60;78.30;;;;;;;;;;5108847;28;20031;-59
2024/03/11 02:38:53;;;;;;;80.28;76.22;;;;;;;;;;5113199;28;20082;-60
2024/03/11 02:41:19;;;;;;;81.47;77.38;;;;;;;;;;5109644;28;20035;-59
2024/03/11 02:43:45;;;;;;;74.95;71.25;;;;;;;;;;5108661;28;20041;-59
2024/03/11 02:46:10;;;;;;;79.88;75.80;;;;;;;;;;5110161;28;20102;-59
2024/03/11 02:48:37;;;;;;;79.68;75.68;;;;;;;;;;5106599;28;20036;-59
2024/03/11 02:51:03;;;;;;;80.45;76.45;;;;;;;;;;5111706;28;20410;-59
2024/03/11 02:53:30;;;;;;;79.00;75.03;;;;;;;;;;5107081;28;20087;-59
2024/03/11 02:55:56;;;;;;;83.38;79.22;;;;;;;;;;5112314;28;20124;-59
2024/03/11 02:58:22;;;;;;;89.00;84.55;;;;;;;;;;5088000;28;20100;-59
2024/03/11 03:00:48;;;;;;;78.60;74.65;;;;;;;;;;5109279;28;20080;-59
2024/03/11 03:03:14;;;;;;;85.13;80.88;;;;;;;;;;5110099;28;20043;-59
2024/03/11 03:05:41;;;;;;;85.22;80.85;;;;;;;;;;5111671;28;20027;-59
2024/03/11 03:08:06;;;;;;;80.72;76.63;;;;;;;;;;5113020;27;20028;-60
2024/03/11 03:10:33;;;;;;;80.07;76.07;;;;;;;;;;5113474;27;20032;-59
2024/03/11 03:12:58;;;;;;;83.28;78.82;;;;;;;;;;5110968;27;20027;-59
2024/03/11 03:15:24;;;;;;;83.45;79.15;;;;;;;;;;5093487;27;20346;-59
2024/03/11 03:17:49;;;;;;;84.32;80.10;;;;;;;;;;5094578;27;20037;-59
2024/03/11 03:20:14;;;;;;;89.15;84.75;;;;;;;;;;5097234;27;20115;-61
2024/03/11 03:22:40;;;;;;;79.72;75.32;;;;;;;;;;5112698;27;20485;-59
2024/03/11 03:25:06;;;;;;;87.45;83.07;;;;;;;;;;5114674;27;20035;-59
2024/03/11 03:27:32;;;;;;;81.68;77.53;;;;;;;;;;5111942;27;20925;-59
2024/03/11 03:29:58;;;;;;;82.53;78.43;;;;;;;;;;5114343;27;20040;-59
2024/03/11 03:32:24;;;;;;;81.85;76.70;;;;;;;;;;5112793;27;20019;-59
2024/03/11 03:34:50;;;;;;;82.78;78.65;;;;;;;;;;5113182;27;20118;-59
2024/03/11 03:37:16;;;;;;;79.65;75.55;;;;;;;;;;5109647;27;20031;-59
2024/03/11 03:39:41;;;;;;;82.85;78.75;;;;;;;;;;5110367;27;20043;-59
2024/03/11 03:42:06;;;;;;;87.22;82.90;;;;;;;;;;5112392;27;20040;-58
2024/03/11 03:44:32;;;;;;;85.65;81.38;;;;;;;;;;5112177;27;20039;-59
2024/03/11 03:46:58;;;;;;;90.22;85.75;;;;;;;;;;5114688;27;20051;-59
2024/03/11 03:49:23;;;;;;;91.30;86.75;;;;;;;;;;5096892;27;20022;-59
2024/03/11 03:51:49;;;;;;;94.05;89.32;;;;;;;;;;5113773;27;20032;-59
2024/03/11 03:54:14;;;;;;;91.43;86.93;;;;;;;;;;5115382;27;20138;-59
2024/03/11 03:56:40;;;;;;;92.43;87.82;;;;;;;;;;5110814;27;20225;-59
2024/03/11 03:59:05;;;;;;;94.97;90.18;;;;;;;;;;5112653;27;20039;-59
2024/03/11 04:01:31;;;;;;;106.63;101.32;;;;;;;;;;5112477;27;20122;-59
2024/03/11 04:03:56;;;;;;;97.85;93.00;;;;;;;;;;5110936;27;20028;-59
2024/03/11 04:06:22;;;;;;;87.82;83.47;;;;;;;;;;5110174;27;20471;-59
2024/03/11 04:08:48;;;;;;;91.53;86.97;;;;;;;;;;5111185;27;20540;-59
2024/03/11 04:11:13;;;;;;;96.25;91.47;;;;;;;;;;5111771;27;20031;-59
2024/03/11 04:13:39;;;;;;;94.70;89.95;;;;;;;;;;5111342;27;20818;-59
2024/03/11 04:16:04;;;;;;;92.70;88.10;;;;;;;;;;5116362;27;20570;-59
2024/03/11 04:18:30;;;;;;;93.30;88.65;;;;;;;;;;5111222;27;20426;-59
2024/03/11 04:20:55;;;;;;;101.05;96.03;;;;;;;;;;5112610;27;20119;-59
2024/03/11 04:23:26;;;;;;;105.90;100.68;;;;;;;;;;5110458;27;20031;-59
2024/03/11 04:25:51;;;;;;;111.60;106.03;;;;;;;;;;5108919;27;20172;-59
2024/03/11 04:28:18;;;;;;;115.15;109.45;;;;;;;;;;5114306;27;20114;-60
2024/03/11 04:30:44;;;;;;;105.75;100.53;;;;;;;;;;5115929;27;20065;-59
2024/03/11 04:33:11;;;;;;;122.68;116.60;;;;;;;;;;5115383;27;20028;-60
2024/03/11 04:35:39;;;;;;;133.45;126.82;;;;;;;;;;5115316;27;20035;-59
2024/03/11 04:38:08;;;;;;;128.23;121.88;;;;;;;;;;5113791;27;20113;-59
2024/03/11 04:40:40;;;;;;;135.52;128.77;;;;;;;;;;5113348;27;20044;-59
2024/03/11 04:43:05;;;;;;;121.40;115.38;;;;;;;;;;5116063;27;20031;-59
2024/03/11 04:45:31;;;;;;;121.68;115.60;;;;;;;;;;5096478;27;20054;-59
2024/03/11 04:47:58;;;;;;;120.78;114.78;;;;;;;;;;5115763;27;20031;-59
2024/03/11 04:50:30;;;;;;;122.15;116.07;;;;;;;;;;5114528;27;20679;-60
2024/03/11 04:53:02;;;;;;;121.50;115.43;;;;;;;;;;5113526;27;20070;-59
2024/03/11 04:55:28;;;;;;;122.97;116.82;;;;;;;;;;5114687;27;20030;-60
2024/03/11 04:57:55;;;;;;;127.90;121.40;;;;;;;;;;5113580;27;20027;-59
2024/03/11 05:00:26;;;;;;;124.95;118.57;;;;;;;;;;5113833;27;20039;-59
2024/03/11 05:02:52;;;;;;;123.03;116.55;;;;;;;;;;5113939;27;20508;-59
2024/03/11 05:05:17;;;;;;;118.57;112.68;;;;;;;;;;5110903;27;20066;-59
2024/03/11 05:07:43;;;;;;;118.15;112.25;;;;;;;;;;5111696;27;20078;-60
2024/03/11 05:10:09;;;;;;;120.18;114.22;;;;;;;;;;5116650;27;20058;-60
2024/03/11 05:12:34;;;;;;;124.22;118.03;;;;;;;;;;5109479;27;20067;-60
2024/03/11 05:14:59;;;;;;;130.00;123.55;;;;;;;;;;5113930;27;20057;-60
2024/03/11 05:17:25;;;;;;;132.85;126.25;;;;;;;;;;5111979;27;20032;-60
2024/03/11 05:19:51;;;;;;;134.65;127.95;;;;;;;;;;5109737;27;20096;-60
2024/03/11 05:22:17;;;;;;;130.82;124.32;;;;;;;;;;5110860;27;20043;-59
2024/03/11 05:24:42;;;;;;;134.10;127.45;;;;;;;;;;5115705;27;20130;-59
2024/03/11 05:27:08;;;;;;;135.13;128.43;;;;;;;;;;5113549;27;20039;-59
2024/03/11 05:29:34;;;;;;;125.22;118.97;;;;;;;;;;5114703;27;20125;-60
2024/03/11 05:32:00;;;;;;;127.95;121.65;;;;;;;;;;5113439;27;20040;-60
2024/03/11 05:34:25;;;;;;;135.30;128.57;;;;;;;;;;5113720;27;20043;-60
2024/03/11 05:36:51;;;;;;;128.35;121.88;;;;;;;;;;5108586;27;20035;-60
2024/03/11 05:39:16;;;;;;;126.68;120.38;;;;;;;;;;5112201;27;20035;-59
2024/03/11 05:41:43;;;;;;;128.18;121.78;;;;;;;;;;5110719;27;20088;-60
2024/03/11 05:44:11;;;;;;;133.63;126.97;;;;;;;;;;5113107;27;20031;-60
2024/03/11 05:46:37;;;;;;;132.13;125.53;;;;;;;;;;5112625;27;20032;-61
2024/03/11 05:49:05;;;;;;;132.85;126.25;;;;;;;;;;5113595;27;20552;-60
2024/03/11 05:51:31;;;;;;;128.93;122.53;;;;;;;;;;5097381;28;20547;-60
2024/03/11 05:54:00;;;;;;;135.60;128.73;;;;;;;;;;5114952;27;20027;-60
2024/03/11 05:56:28;;;;;;;139.18;132.23;;;;;;;;;;5094272;27;20033;-60
2024/03/11 05:58:53;;;;;;;136.82;129.95;;;;;;;;;;5111679;27;20039;-60
2024/03/11 06:01:20;;;;;;;133.23;126.60;;;;;;;;;;5114438;27;20039;-60
2024/03/11 06:03:49;;;;;;;129.48;123.07;;;;;;;;;;5114632;27;20209;-60
2024/03/11 06:06:15;;;;;;;137.43;130.55;;;;;;;;;;5115360;27;20593;-60
2024/03/11 06:08:41;;;;;;;129.52;123.05;;;;;;;;;;5114957;27;20155;-60
2024/03/11 06:11:08;;;;;;;126.22;119.95;;;;;;;;;;5111576;27;20165;-60
2024/03/11 06:13:33;;;;;;;127.88;121.50;;;;;;;;;;5109607;28;20035;-60
2024/03/11 06:16:00;;;;;;;135.38;128.60;;;;;;;;;;5114274;27;20088;-60
2024/03/11 06:18:25;;;;;;;138.25;131.35;;;;;;;;;;5111142;28;20070;-60
2024/03/11 06:20:51;;;;;;;135.75;128.90;;;;;;;;;;5109593;28;20074;-60
2024/03/11 06:23:18;;;;;;;139.27;132.23;;;;;;;;;;5109610;28;20033;-60
2024/03/11 06:25:43;;;;;;;139.23;132.30;;;;;;;;;;5108246;28;20046;-64
2024/03/11 06:28:09;;;;;;;147.00;139.70;;;;;;;;;;5110910;28;20027;-61
2024/03/11 06:30:34;;;;;;;141.18;134.13;;;;;;;;;;5110045;28;21529;-62
2024/03/11 06:33:00;;;;;;;146.98;139.70;;;;;;;;;;5113057;28;20028;-60
2024/03/11 06:35:25;;;;;;;137.68;130.75;;;;;;;;;;5110563;28;20031;-61
2024/03/11 06:37:51;;;;;;;143.40;136.15;;;;;;;;;;5109820;28;20140;-61
2024/03/11 06:40:21;;;;;;;140.57;133.05;;;;;;;;;;5112702;28;20472;-62
2024/03/11 06:42:48;;;;;;;138.88;131.95;;;;;;;;;;5113604;27;20042;-62
2024/03/11 06:45:15;;;;;;;141.90;134.80;;;;;;;;;;5115702;27;20028;-61
2024/03/11 06:47:41;;;;;;;146.00;138.73;;;;;;;;;;5113466;27;20122;-61
2024/03/11 06:50:07;;;;;;;156.60;148.80;;;;;;;;;;5116518;27;20126;-62
2024/03/11 06:52:33;;;;;;;154.90;147.15;;;;;;;;;;5113889;27;20431;-63
2024/03/11 06:54:59;;;;;;;151.07;143.57;;;;;;;;;;5115780;27;20038;-62
2024/03/11 06:57:24;;;;;;;152.35;144.70;;;;;;;;;;5110600;27;20042;-63
2024/03/11 06:59:50;;;;;;;150.80;143.32;;;;;;;;;;5111615;27;20069;-63
2024/03/11 07:02:20;;;;;;;158.57;150.68;;;;;;;;;;5115805;27;20048;-61
2024/03/11 07:04:46;;;;;;;149.25;141.85;;;;;;;;;;5114067;27;20042;-61
2024/03/11 07:07:12;;;;;;;151.77;144.20;;;;;;;;;;5114507;27;20192;-62
2024/03/11 07:09:37;;;;;;;146.73;139.35;;;;;;;;;;5111999;27;20627;-62
2024/03/11 07:12:03;;;;;;;149.43;141.90;;;;;;;;;;5098392;27;20020;-63
2024/03/11 07:14:28;;;;;;;151.63;144.07;;;;;;;;;;5114690;27;20061;-62
2024/03/11 07:16:54;;;;;;;149.98;142.48;;;;;;;;;;5116519;27;20326;-62
2024/03/11 07:19:25;;;;;;;139.48;132.50;;;;;;;;;;5119848;27;20031;-61
2024/03/11 07:21:50;;;;;;;;;;;;;;;;;;5114954;27;20083;-60
2024/03/11 07:24:19;;;;;;;114.38;108.60;;;;;;;;;;5113961;27;19970;-62
2024/03/11 07:26:44;;;;;;;134.25;127.57;;;;;;;;;;5114314;27;20046;-62
2024/03/11 07:29:11;;;;;;;150.15;142.57;;;;;;;;;;5118524;27;20040;-62
2024/03/11 07:31:38;;;;;;;145.40;138.20;;;;;;;;;;5115296;27;20039;-62
2024/03/11 07:34:04;;;;;;;144.15;136.98;;;;;;;;;;5117524;27;20356;-62
2024/03/11 07:36:29;;;;;;;138.48;131.52;;;;;;;;;;5114950;27;20057;-63
2024/03/11 07:38:55;;;;;;;140.25;133.15;;;;;;;;;;5116722;27;20032;-60
2024/03/11 07:41:20;;;;;;;137.02;130.15;;;;;;;;;;5112915;27;21116;-61
2024/03/11 07:43:46;;;;;;;130.00;123.47;;;;;;;;;;5110764;27;20501;-61
2024/03/11 07:46:11;;;;;;;125.43;119.10;;;;;;;;;;5114931;27;20040;-61
2024/03/11 07:48:39;;;;;;;137.65;130.57;;;;;;;;;;5115634;27;20035;-61
2024/03/11 07:51:05;;;;;;;141.38;134.23;;;;;;;;;;5098586;27;20046;-61
2024/03/11 07:53:30;;;;;;;140.40;132.95;;;;;;;;;;5113747;27;20114;-60
2024/03/11 07:55:56;;;;;;;136.20;129.23;;;;;;;;;;5096276;27;23639;-61
2024/03/11 07:58:22;;;;;;;143.30;136.00;;;;;;;;;;5119137;27;20031;-60
2024/03/11 08:00:47;;;;;;;128.93;122.43;;;;;;;;;;5117603;27;20089;-61
2024/03/11 08:03:14;;;;;;;136.77;129.95;;;;;;;;;;5118141;27;20070;-61
2024/03/11 08:05:40;;;;;;;138.85;131.90;;;;;;;;;;5095333;27;20027;-61
2024/03/11 08:08:08;;;;;;;146.07;138.75;;;;;;;;;;5116083;27;20040;-61
2024/03/11 08:10:34;;;;;;;129.00;122.60;;;;;;;;;;5114260;27;20633;-60
2024/03/11 08:13:00;;;;;;;129.43;122.90;;;;;;;;;;5113862;27;20159;-61
2024/03/11 08:15:26;;;;;;;125.60;119.32;;;;;;;;;;5111964;27;20150;-62
2024/03/11 08:17:52;;;;;;;121.65;115.53;;;;;;;;;;5115167;27;20437;-62
2024/03/11 08:20:20;;;;;;;130.57;124.10;;;;;;;;;;5114935;27;20051;-61
2024/03/11 08:22:52;;;;;;;132.60;125.95;;;;;;;;;;5112483;27;20359;-62
2024/03/11 08:25:27;;;;;;;123.15;117.00;;;;;;;;;;5111848;27;20047;-62
2024/03/11 08:27:54;;;;;;;125.10;118.85;;;;;;;;;;5115259;27;20385;-62
2024/03/11 08:30:21;;;;;;;125.22;119.00;;;;;;;;;;5113863;27;20038;-62
2024/03/11 08:32:47;;;;;;;132.10;125.53;;;;;;;;;;5115178;27;20134;-62
2024/03/11 08:35:14;;;;;;;138.98;132.02;;;;;;;;;;5115430;27;20118;-62
2024/03/11 08:37:41;;;;;;;129.55;123.10;;;;;;;;;;5114073;27;20122;-62
2024/03/11 08:40:08;;;;;;;137.13;130.27;;;;;;;;;;5113622;27;20035;-62
2024/03/11 08:42:35;;;;;;;139.48;132.52;;;;;;;;;;5112364;27;20039;-62
2024/03/11 08:45:01;;;;;;;135.23;128.48;;;;;;;;;;5111770;27;20043;-62
2024/03/11 08:47:27;;;;;;;135.05;128.30;;;;;;;;;;5114382;27;20228;-62
2024/03/11 08:49:53;;;;;;;137.13;130.27;;;;;;;;;;5114834;27;20106;-62
2024/03/11 08:52:19;;;;;;;128.18;121.70;;;;;;;;;;5113146;27;20012;-62
2024/03/11 08:54:44;;;;;;;122.10;116.00;;;;;;;;;;5116035;27;20408;-62
2024/03/11 08:57:12;;;;;;;108.32;102.93;;;;;;;;;;5112017;27;20031;-62
2024/03/11 08:59:38;;;;;;;107.53;102.13;;;;;;;;;;5115524;27;20055;-62
2024/03/11 09:02:05;;;;;;;113.53;107.88;;;;;;;;;;5117175;27;21147;-62
2024/03/11 09:04:30;;;;;;;122.43;116.35;;;;;;;;;;5115066;27;20118;-62
2024/03/11 09:06:57;;;;;;;120.00;113.82;;;;;;;;;;5115717;27;20114;-62
2024/03/11 09:09:26;;;;;;;112.60;106.97;;;;;;;;;;5116629;27;20106;-62
2024/03/11 09:11:58;;;;;;;97.43;92.60;;;;;;;;;;5109878;27;20122;-62
2024/03/11 09:14:27;;;;;;;105.65;100.40;;;;;;;;;;5113967;27;20019;-62
2024/03/11 09:16:58;;;;;;;109.03;103.53;;;;;;;;;;5113613;27;20110;-62
2024/03/11 09:19:24;;;;;;;107.50;102.10;;;;;;;;;;5110709;27;20558;-62
2024/03/11 09:21:53;;;;;;;112.70;107.13;;;;;;;;;;5116658;27;20035;-62
2024/03/11 09:24:20;;;;;;;109.47;104.05;;;;;;;;;;5113342;27;20038;-62
2024/03/11 09:26:47;;;;;;;98.78;92.53;;;;;;;;;;5111760;27;20038;-62
2024/03/11 09:29:13;;;;;;;82.00;77.88;;;;;;;;;;5114526;27;20131;-62
2024/03/11 09:31:39;;;;;;;88.93;84.47;;;;;;;;;;5113100;27;20126;-62
2024/03/11 09:34:07;;;;;;;80.68;76.60;;;;;;;;;;5111950;27;20031;-62
2024/03/11 09:36:32;;;;;;;87.72;83.28;;;;;;;;;;5113514;27;20042;-62
2024/03/11 09:38:58;;;;;;;87.30;82.93;;;;;;;;;;5111639;27;20035;-62
2024/03/11 09:41:25;;;;;;;89.03;84.53;;;;;;;;;;5114048;27;20046;-62
2024/03/11 09:43:52;;;;;;;87.75;83.22;;;;;;;;;;5093616;28;20055;-62
2024/03/11 09:46:21;;;;;;;101.13;96.13;;;;;;;;;;5110298;27;20193;-61
2024/03/11 09:48:51;;;;;;;91.38;86.82;;;;;;;;;;5113514;27;20067;-61
2024/03/11 09:51:21;;;;;;;88.32;83.78;;;;;;;;;;5111656;27;20247;-62
2024/03/11 09:53:58;;;;;;;74.00;70.30;;;;;;;;;;5110723;27;20039;-61
2024/03/11 09:56:24;;;;;;;75.05;71.30;;;;;;;;;;5113190;27;20034;-61
2024/03/11 09:59:04;;;;;;;76.28;72.43;;;;;;;;;;5112594;27;20039;-61
2024/03/11 10:01:31;;;;;;;77.55;73.50;;;;;;;;;;5112392;27;20039;-61
2024/03/11 10:03:58;;;;;;;102.35;97.25;;;;;;;;;;5112451;27;20062;-61
2024/03/11 10:06:24;;;;;;;111.20;105.63;;;;;;;;;;5113828;28;20114;-61
2024/03/11 10:08:50;;;;;;;120.45;114.40;;;;;;;;;;5089520;27;20163;-59
2024/03/11 10:11:20;;;;;;;96.20;91.40;;;;;;;;;;5111738;27;20114;-59
2024/03/11 10:13:47;;;;;;;92.75;88.05;;;;;;;;;;5114975;27;20039;-59
2024/03/11 10:16:17;;;;;;;101.10;95.95;;;;;;;;;;5112093;27;20032;-59
2024/03/11 10:18:53;;;;;;;74.95;71.18;;;;;;;;;;5116084;27;20035;-59
2024/03/11 10:21:19;;;;;;;77.40;73.45;;;;;;;;;;5113129;28;20046;-59
2024/03/11 10:23:47;;;;;;;87.00;82.70;;;;;;;;;;5113219;28;20036;-59
2024/03/11 10:26:24;;;;;;;67.72;64.30;;;;;;;;;;5114908;28;20038;-59
2024/03/11 10:28:50;;;;;;;47.70;45.25;;;;;;;;;;5112255;28;20028;-59
2024/03/11 10:31:31;;;;;;;50.67;48.08;;;;;;;;;;5111391;28;20393;-58
2024/03/11 10:34:24;;;;;;;36.97;35.05;;;;;;;;;;5110671;28;20064;-58
2024/03/11 10:36:59;;;;;;;33.97;31.88;;;;;;;;;;5095759;28;20027;-58
2024/03/11 10:39:37;;;;;;;40.33;38.22;;;;;;;;;;5091517;28;20043;-59
2024/03/11 10:42:08;;;;;;;56.45;53.40;;;;;;;;;;5109410;28;20449;-59
2024/03/11 10:44:40;;;;;;;62.30;59.10;;;;;;;;;;5109166;28;20053;-58
2024/03/11 10:47:14;;;;;;;37.88;35.88;;;;;;;;;;5092301;28;20027;-58
2024/03/11 10:49:47;;;;;;;53.75;50.95;;;;;;;;;;5112926;28;20482;-59
2024/03/11 10:52:16;;;;;;;61.65;58.50;;;;;;;;;;5111354;28;20457;-58
2024/03/11 10:54:47;;;;;;;66.97;63.53;;;;;;;;;;5115103;28;20121;-58
2024/03/11 10:57:43;;;;;;;71.60;68.00;;;;;;;;;;5109913;28;20038;-58
2024/03/11 11:00:19;;;;;;;60.88;57.78;;;;;;;;;;5080749;28;20134;-58
2024/03/11 11:02:53;;;;;;;50.83;48.22;;;;;;;;;;5112325;28;20489;-58
2024/03/11 11:05:24;;;;;;;49.33;46.83;;;;;;;;;;5112484;28;20272;-58
2024/03/11 11:07:51;;;;;;;64.20;60.95;;;;;;;;;;5111391;28;20031;-58
2024/03/11 11:10:18;;;;;;;62.35;59.15;;;;;;;;;;5112293;28;20092;-58
2024/03/11 11:12:43;;;;;;;56.00;53.00;;;;;;;;;;5109314;28;20102;-59
2024/03/11 11:15:12;;;;;;;40.50;38.40;;;;;;;;;;5091647;28;20122;-58
2024/03/11 11:17:41;;;;;;;36.28;34.30;;;;;;;;;;5111707;28;20579;-59
2024/03/11 11:22:57;;;;;;;39.15;37.10;;;;;;;;;;5113277;28;20035;-59
2024/03/11 11:25:32;;;;;;;33.17;31.42;;;;;;;;;;5113677;28;20502;-59
2024/03/11 11:27:57;;;;;;;35.58;33.67;;;;;;;;;;5111726;27;20562;-59
2024/03/11 11:30:28;;;;;;;34.88;33.00;;;;;;;;;;5116241;27;20092;-59
2024/03/11 11:32:54;;;;;;;;;;;;;;;;;;5119032;27;20032;-58
2024/03/11 11:35:36;;;;;;;36.45;34.55;;;;;;;;;;5114707;27;19915;-61
2024/03/11 11:38:27;;;;;;;37.25;35.35;;;;;;;;;;5114698;27;20411;-59
2024/03/11 11:40:56;;;;;;;35.67;33.67;;;;;;;;;;5114770;27;20114;-59
2024/03/11 11:43:41;;;;;;;34.40;32.60;;;;;;;;;;5115602;27;20028;-59
2024/03/11 11:46:09;;;;;;;46.08;43.72;;;;;;;;;;5116248;27;20046;-59
2024/03/11 11:48:37;;;;;;;43.92;41.65;;;;;;;;;;5116490;27;20035;-59
2024/03/11 11:51:02;;;;;;;50.38;47.80;;;;;;;;;;5117798;27;20666;-58
2024/03/11 11:53:30;;;;;;;48.45;45.90;;;;;;;;;;5091117;27;20030;-59
2024/03/11 11:55:57;;;;;;;31.67;29.98;;;;;;;;;;5114964;27;20063;-58
2024/03/11 11:58:24;;;;;;;35.38;33.47;;;;;;;;;;5115267;27;20039;-59
2024/03/11 12:00:58;;;;;;;38.83;36.72;;;;;;;;;;5114975;27;20526;-58
2024/03/11 12:03:32;;;;;;;40.85;38.70;;;;;;;;;;5116495;27;20042;-59
2024/03/11 12:06:11;;;;;;;39.20;37.10;;;;;;;;;;5114495;27;20031;-59
2024/03/11 12:08:38;;;;;;;34.05;32.25;;;;;;;;;;5117987;27;20730;-59
2024/03/11 12:11:15;;;;;;;40.35;38.25;;;;;;;;;;5113862;27;20519;-59
2024/03/11 12:13:42;;;;;;;38.72;36.72;;;;;;;;;;5117567;27;20035;-59
2024/03/11 12:16:10;;;;;;;39.15;37.05;;;;;;;;;;5109644;27;20035;-59
2024/03/11 12:18:41;;;;;;;38.33;36.33;;;;;;;;;;5115250;27;20035;-58
2024/03/11 12:21:11;;;;;;;35.40;33.50;;;;;;;;;;5113559;27;20038;-59
2024/03/11 12:23:37;;;;;;;36.65;34.75;;;;;;;;;;5114071;27;20024;-59
2024/03/11 12:26:03;;;;;;;34.05;32.28;;;;;;;;;;5115964;27;20054;-59
2024/03/11 12:28:29;;;;;;;34.78;32.95;;;;;;;;;;5112466;27;20039;-60
2024/03/11 12:30:55;;;;;;;28.48;26.88;;;;;;;;;;5114903;27;20073;-59
2024/03/11 12:33:23;;;;;;;28.95;27.45;;;;;;;;;;5113141;27;20036;-59
2024/03/11 12:35:50;;;;;;;29.05;27.55;;;;;;;;;;5116617;27;20023;-59
2024/03/11 12:38:16;;;;;;;30.40;28.80;;;;;;;;;;5115959;27;20035;-59
2024/03/11 12:40:46;;;;;;;32.58;30.88;;;;;;;;;;5113113;27;20123;-59
2024/03/11 12:43:30;;;;;;;28.50;27.00;;;;;;;;;;5097013;27;20036;-59
2024/03/11 12:45:58;;;;;;;30.90;29.30;;;;;;;;;;5111562;27;20061;-58
2024/03/11 12:48:25;;;;;;;27.48;25.98;;;;;;;;;;5090740;28;20050;-58
2024/03/11 12:50:55;;;;;;;28.40;26.90;;;;;;;;;;5108698;27;20457;-59
2024/03/11 12:53:23;;;;;;;31.17;29.48;;;;;;;;;;5110048;27;20046;-58
2024/03/11 12:56:00;;;;;;;27.05;25.55;;;;;;;;;;5110046;27;20468;-60
2024/03/11 12:58:25;;;;;;;36.15;34.28;;;;;;;;;;5115632;27;20064;-60
2024/03/11 13:01:04;;;;;;;37.53;35.63;;;;;;;;;;5116017;27;20032;-60
2024/03/11 13:03:31;;;;;;;32.67;30.98;;;;;;;;;;5115074;27;20047;-60
2024/03/11 13:06:01;;;;;;;28.70;27.20;;;;;;;;;;5095112;27;20031;-60
2024/03/11 13:08:33;;;;;;;29.30;27.77;;;;;;;;;;5093373;27;20032;-60
2024/03/11 13:11:09;;;;;;;28.85;27.33;;;;;;;;;;5109836;27;20039;-59
2024/03/11 13:13:41;;;;;;;30.38;28.73;;;;;;;;;;5097124;27;20126;-60
2024/03/11 13:16:09;;;;;;;33.65;31.92;;;;;;;;;;5099479;27;20492;-60
2024/03/11 13:18:39;;;;;;;30.48;28.88;;;;;;;;;;5114464;27;20050;-60
2024/03/11 13:21:06;;;;;;;32.35;30.65;;;;;;;;;;5110790;27;20080;-58
2024/03/11 13:23:33;;;;;;;28.50;27.00;;;;;;;;;;5111804;27;20023;-57
2024/03/11 13:25:59;;;;;;;28.95;27.35;;;;;;;;;;5113203;27;20031;-58
2024/03/11 13:28:26;;;;;;;35.83;33.72;;;;;;;;;;5111614;27;20081;-58
2024/03/11 13:30:51;;;;;;;32.58;30.83;;;;;;;;;;5113400;27;20468;-58
2024/03/11 13:33:18;;;;;;;34.03;32.17;;;;;;;;;;5112756;27;20042;-58
2024/03/11 13:35:43;;;;;;;33.80;32.00;;;;;;;;;;5115394;27;20041;-57
2024/03/11 13:38:10;;;;;;;34.47;32.67;;;;;;;;;;5094589;27;20031;-57
2024/03/11 13:40:36;;;;;;;33.33;31.58;;;;;;;;;;5111217;27;20894;-57
2024/03/11 13:43:02;;;;;;;36.83;34.83;;;;;;;;;;5113605;27;20024;-58
2024/03/11 13:45:28;;;;;;;41.70;39.55;;;;;;;;;;5113401;27;20019;-58
2024/03/11 13:47:54;;;;;;;39.20;37.20;;;;;;;;;;5096299;27;20473;-58
2024/03/11 13:50:24;;;;;;;31.73;30.02;;;;;;;;;;5111429;27;20050;-58
2024/03/11 13:52:50;;;;;;;30.40;28.80;;;;;;;;;;5111613;27;20035;-58
2024/03/11 13:55:17;;;;;;;33.42;31.73;;;;;;;;;;5093672;27;20033;-58
2024/03/11 13:57:43;;;;;;;29.80;28.20;;;;;;;;;;5110688;27;20049;-58
2024/03/11 14:00:17;;;;;;;32.50;30.75;;;;;;;;;;5114250;27;20069;-58
2024/03/11 14:02:50;;;;;;;26.98;25.23;;;;;;;;;;5112216;27;20451;-58
2024/03/11 14:05:17;;;;;;;27.05;25.55;;;;;;;;;;5111239;27;20118;-58
2024/03/11 14:07:45;;;;;;;29.40;27.80;;;;;;;;;;5112169;27;20061;-58
2024/03/11 14:10:12;;;;;;;27.85;26.25;;;;;;;;;;5108890;28;20691;-58
2024/03/11 14:12:37;;;;;;;27.58;26.08;;;;;;;;;;5109912;27;20035;-58